Terminal Aerodrome Forecast
Issued by NWS

Home | Current Version | Previous Version | Text Only | Print | Product List | Glossary Off
Versions: 1 2 3 4 5 6 7 8 9 10 11 12 13 14 15 16 17

000
FTUS42 KMHX 210200 AAA
TAFOAJ
TAF AMD
KOAJ 210207Z 2102/2124 03009KT P6SM -RA BKN015 BKN035
      TEMPO 2102/2106 BKN008
     FM210600 02009KT 6SM -RA BR BKN010
      TEMPO 2106/2110 BKN008
     FM211400 32009KT P6SM FEW030 SCT060
      AMD LTD TO CLD VIS AND WIND=

USA.gov is the U.S. government's official web portal to all federal, state and local government web resources and services.